createdAt,value
2017-08-15T00:01:05.283Z,36.60
2017-08-15T00:03:33.533Z,33.03
2017-08-15T00:06:01.115Z,35.53
2017-08-15T00:08:29.335Z,38.60
2017-08-15T00:10:56.835Z,36.00
2017-08-15T00:13:24.378Z,46.10
2017-08-15T00:15:51.967Z,37.50
2017-08-15T00:18:20.241Z,36.73
2017-08-15T00:20:48.467Z,34.40
2017-08-15T00:23:16.357Z,34.77
2017-08-15T00:25:43.835Z,35.40
2017-08-15T00:28:12.114Z,36.57
2017-08-15T00:30:40.379Z,43.87
2017-08-15T00:33:07.838Z,39.43
2017-08-15T00:35:35.400Z,39.17
2017-08-15T00:38:03.643Z,35.33
2017-08-15T00:40:31.131Z,47.77
2017-08-15T00:42:59.363Z,51.83
2017-08-15T00:45:26.912Z,48.07
2017-08-15T00:47:54.552Z,48.40
2017-08-15T00:50:22.044Z,48.03
2017-08-15T00:52:49.517Z,44.27
2017-08-15T00:55:17.100Z,53.67
2017-08-15T00:57:44.588Z,53.57
2017-08-15T01:00:12.067Z,56.50
2017-08-15T01:02:39.535Z,54.97
2017-08-15T01:05:07.012Z,56.23
2017-08-15T01:07:34.496Z,55.90
2017-08-15T01:10:02.760Z,52.27
2017-08-15T01:12:30.315Z,54.43
2017-08-15T01:14:58.617Z,54.37
2017-08-15T01:17:26.082Z,55.47
2017-08-15T01:19:53.555Z,56.80
2017-08-15T01:22:21.328Z,53.03
2017-08-15T01:24:48.798Z,57.13
2017-08-15T01:27:17.083Z,59.97
2017-08-15T01:29:45.268Z,52.73
2017-08-15T01:32:12.742Z,49.93
2017-08-15T01:34:41.417Z,54.63
2017-08-15T01:37:08.977Z,53.13
2017-08-15T01:39:36.459Z,49.73
2017-08-15T01:42:04.515Z,50.83
2017-08-15T01:44:32.754Z,54.77
2017-08-15T01:47:00.222Z,49.80
2017-08-15T01:49:27.693Z,48.70
2017-08-15T01:51:55.931Z,54.40
2017-08-15T01:54:23.404Z,53.27
2017-08-15T01:56:50.979Z,54.43
2017-08-15T01:59:18.447Z,56.70
2017-08-15T02:01:46.692Z,55.80
2017-08-15T02:04:14.152Z,58.17
2017-08-15T02:06:41.621Z,55.23
2017-08-15T02:09:09.183Z,57.33
2017-08-15T02:11:36.741Z,56.40
2017-08-15T02:14:04.208Z,55.20
2017-08-15T02:16:32.451Z,54.20
2017-08-15T02:18:59.931Z,48.93
2017-08-15T02:21:27.496Z,49.50
2017-08-15T02:23:54.964Z,49.70
2017-08-15T02:26:23.219Z,55.10
2017-08-15T02:28:50.684Z,59.67
2017-08-15T02:31:18.150Z,58.13
2017-08-15T02:33:46.414Z,56.23
2017-08-15T02:36:13.874Z,53.07
2017-08-15T02:38:42.153Z,59.30
2017-08-15T02:41:10.371Z,59.53
2017-08-15T02:43:37.831Z,52.20
2017-08-15T02:46:05.319Z,50.03
2017-08-15T02:48:32.893Z,56.67
2017-08-15T02:51:00.447Z,57.00
2017-08-15T02:53:27.927Z,55.30
2017-08-15T02:55:55.484Z,50.63
2017-08-15T02:58:23.719Z,50.77
2017-08-15T03:00:51.311Z,49.03
2017-08-15T03:03:19.547Z,53.27
2017-08-15T03:05:47.018Z,54.80
2017-08-15T03:08:14.500Z,49.90
2017-08-15T03:10:42.750Z,52.93
2017-08-15T03:13:10.206Z,58.00
2017-08-15T03:15:37.692Z,50.90
2017-08-15T03:18:06.384Z,54.67
2017-08-15T03:20:33.843Z,53.90
2017-08-15T03:23:01.379Z,52.57
2017-08-15T03:25:29.618Z,61.63
2017-08-15T03:27:57.091Z,54.17
2017-08-15T03:30:24.668Z,58.37
2017-08-15T03:32:52.131Z,54.30
2017-08-15T03:35:20.372Z,54.93
2017-08-15T03:37:47.852Z,47.07
2017-08-15T03:40:16.112Z,52.60
2017-08-15T03:42:44.188Z,55.90
2017-08-15T03:45:11.671Z,54.60
2017-08-15T03:47:39.899Z,54.53
2017-08-15T03:50:07.372Z,56.23
2017-08-15T03:52:34.943Z,59.40
2017-08-15T03:55:02.414Z,58.90
2017-08-15T03:57:30.652Z,53.23
2017-08-15T03:59:58.232Z,56.57
2017-08-15T04:02:25.706Z,59.30
2017-08-15T04:04:53.966Z,59.47
2017-08-15T04:07:21.440Z,55.43
2017-08-15T04:09:49.674Z,54.73
2017-08-15T04:12:17.978Z,52.93
2017-08-15T04:14:45.544Z,52.60
2017-08-15T04:17:13.806Z,53.10
2017-08-15T04:19:41.375Z,55.60
2017-08-15T04:22:09.622Z,51.60
2017-08-15T04:24:37.091Z,58.83
2017-08-15T04:27:04.552Z,54.17
2017-08-15T04:29:32.122Z,50.50
2017-08-15T04:32:00.395Z,56.50
2017-08-15T04:34:27.872Z,53.63
2017-08-15T04:36:55.382Z,55.67
2017-08-15T04:39:22.868Z,51.10
2017-08-15T04:41:51.110Z,57.33
2017-08-15T04:44:18.596Z,53.37
2017-08-15T04:46:46.160Z,56.57
2017-08-15T04:49:14.391Z,53.70
2017-08-15T04:51:41.897Z,47.20
2017-08-15T04:54:10.159Z,50.90
2017-08-15T04:56:37.619Z,53.07
2017-08-15T04:59:05.179Z,54.93
2017-08-15T05:01:33.423Z,56.17
2017-08-15T05:04:00.911Z,54.97
2017-08-15T05:06:28.379Z,46.33
2017-08-15T05:08:56.647Z,49.47
2017-08-15T05:11:24.200Z,45.83
2017-08-15T05:13:51.761Z,51.73
2017-08-15T05:16:19.314Z,49.20
2017-08-15T05:18:46.879Z,49.90
2017-08-15T05:21:14.440Z,49.30
2017-08-15T05:23:42.008Z,52.67
2017-08-15T05:26:10.277Z,52.57
2017-08-15T05:28:38.511Z,45.10
2017-08-15T05:31:05.984Z,49.20
2017-08-15T05:33:33.458Z,50.03
2017-08-15T05:36:00.935Z,42.73
2017-08-15T05:38:28.407Z,43.27
2017-08-15T05:40:56.000Z,43.17
2017-08-15T05:43:23.520Z,44.33
2017-08-15T05:45:51.004Z,43.70
2017-08-15T05:48:18.508Z,44.67
2017-08-15T05:50:46.748Z,49.03
2017-08-15T05:53:14.236Z,44.40
2017-08-15T05:55:41.708Z,51.63
2017-08-15T05:58:09.957Z,39.30
2017-08-15T06:00:37.431Z,42.57
2017-08-15T06:03:05.695Z,36.63
2017-08-15T06:05:33.171Z,37.13
2017-08-15T06:08:01.443Z,35.83
2017-08-15T06:10:29.683Z,31.43
2017-08-15T06:12:57.165Z,36.60
2017-08-15T06:15:24.728Z,37.60
2017-08-15T06:17:52.999Z,34.40
2017-08-15T06:20:20.478Z,39.27
2017-08-15T06:22:48.723Z,32.83
2017-08-15T06:25:16.296Z,29.33
2017-08-15T06:27:43.967Z,31.43
2017-08-15T06:30:12.200Z,31.23
2017-08-15T06:32:39.668Z,34.30
2017-08-15T06:35:07.153Z,30.10
2017-08-15T06:37:35.400Z,29.43
2017-08-15T06:40:02.939Z,29.73
2017-08-15T06:42:30.428Z,26.37
2017-08-15T06:44:57.884Z,30.13
2017-08-15T06:47:25.345Z,26.10
2017-08-15T06:49:54.408Z,26.17
2017-08-15T06:52:21.885Z,26.30
2017-08-15T06:54:49.463Z,26.03
2017-08-15T06:57:17.734Z,23.43
2017-08-15T06:59:46.099Z,20.07
2017-08-15T07:02:13.559Z,24.13
2017-08-15T07:04:41.100Z,23.60
2017-08-15T07:07:08.588Z,20.67
2017-08-15T07:09:36.820Z,21.50
2017-08-15T07:12:04.296Z,19.50
2017-08-15T07:14:31.771Z,18.57
2017-08-15T07:17:00.054Z,20.57
2017-08-15T07:19:28.303Z,21.33
2017-08-15T07:21:55.772Z,19.37
2017-08-15T07:24:23.231Z,18.73
2017-08-15T07:26:51.807Z,15.43
2017-08-15T07:29:19.275Z,18.07
2017-08-15T07:31:48.149Z,15.23
2017-08-15T07:34:16.748Z,16.00
2017-08-15T07:36:44.984Z,15.33
2017-08-15T07:39:12.476Z,12.47
2017-08-15T07:41:40.038Z,11.53
2017-08-15T07:44:08.145Z,10.20
2017-08-15T07:46:35.656Z,14.17
2017-08-15T07:49:03.135Z,11.10
2017-08-15T07:51:31.377Z,10.50
2017-08-15T07:54:02.779Z,8.50
2017-08-15T07:56:31.125Z,12.60
2017-08-15T07:58:59.384Z,8.00
2017-08-15T08:01:26.882Z,9.07
2017-08-15T08:03:54.411Z,7.57
2017-08-15T08:06:22.591Z,9.67
2017-08-15T08:08:50.834Z,13.20
2017-08-15T08:11:18.312Z,13.03
2017-08-15T08:13:45.877Z,10.17
2017-08-15T08:16:13.643Z,13.87
2017-08-15T08:18:41.199Z,12.63
2017-08-15T08:21:08.982Z,12.83
2017-08-15T08:23:36.523Z,16.07
2017-08-15T08:26:04.083Z,14.27
2017-08-15T08:28:31.631Z,14.20
2017-08-15T08:30:59.111Z,13.70
2017-08-15T08:33:27.374Z,18.07
2017-08-15T08:35:55.616Z,16.77
2017-08-15T08:38:23.204Z,15.63
2017-08-15T08:40:50.672Z,15.40
2017-08-15T08:43:18.911Z,13.07
2017-08-15T08:45:46.562Z,12.30
2017-08-15T08:48:14.020Z,16.90
2017-08-15T08:50:41.495Z,15.67
2017-08-15T08:53:08.974Z,17.37
2017-08-15T08:55:37.211Z,18.70
2017-08-15T08:58:04.801Z,19.93
2017-08-15T09:00:32.273Z,19.80
2017-08-15T09:02:59.735Z,16.70
2017-08-15T09:05:27.222Z,21.07
2017-08-15T09:07:54.707Z,14.30
2017-08-15T09:10:23.326Z,15.20
2017-08-15T09:12:51.591Z,14.10
2017-08-15T09:15:19.834Z,13.30
2017-08-15T09:17:47.322Z,12.40
2017-08-15T09:20:14.879Z,17.90
2017-08-15T09:22:42.369Z,13.23
2017-08-15T09:25:09.858Z,14.90
2017-08-15T09:27:37.655Z,17.27
2017-08-15T09:30:05.120Z,13.67
2017-08-15T09:32:33.364Z,14.87
2017-08-15T09:35:01.373Z,15.83
2017-08-15T09:37:29.607Z,16.77
2017-08-15T09:39:57.212Z,17.33
2017-08-15T09:42:25.468Z,16.47
2017-08-15T09:44:52.944Z,22.53
2017-08-15T09:47:20.424Z,21.87
2017-08-15T09:49:48.915Z,23.00
2017-08-15T09:52:16.399Z,15.57
2017-08-15T09:54:43.868Z,12.63
2017-08-15T09:57:11.323Z,21.47
2017-08-15T09:59:38.903Z,15.17
2017-08-15T10:02:07.148Z,14.00
2017-08-15T10:04:34.624Z,14.40
2017-08-15T10:07:02.909Z,15.63
2017-08-15T10:09:31.135Z,14.00
2017-08-15T10:11:58.603Z,20.60
2017-08-15T10:14:26.088Z,14.43
2017-08-15T10:16:53.553Z,13.67
2017-08-15T10:19:21.793Z,16.90
2017-08-15T10:21:49.275Z,15.83
2017-08-15T10:24:16.843Z,16.20
2017-08-15T10:26:45.118Z,15.50
2017-08-15T10:29:13.392Z,16.20
2017-08-15T10:31:41.663Z,17.53
2017-08-15T10:34:09.928Z,17.93
2017-08-15T10:36:37.416Z,18.10
2017-08-15T10:39:05.651Z,16.20
2017-08-15T10:41:33.221Z,18.87
2017-08-15T10:44:00.788Z,16.87
2017-08-15T10:46:29.032Z,16.80
2017-08-15T10:48:56.507Z,16.60
2017-08-15T10:51:24.071Z,20.57
2017-08-15T10:53:51.563Z,15.53
2017-08-15T10:56:19.043Z,13.53
2017-08-15T10:58:46.705Z,18.67
2017-08-15T11:01:14.167Z,14.63
2017-08-15T11:03:41.661Z,16.27
2017-08-15T11:06:09.226Z,20.20
2017-08-15T11:08:37.495Z,20.07
2017-08-15T11:11:05.058Z,21.20
2017-08-15T11:13:32.529Z,21.03
2017-08-15T11:16:00.776Z,15.53
2017-08-15T11:18:28.253Z,21.63
2017-08-15T11:20:55.811Z,16.27
2017-08-15T11:23:23.408Z,14.20
2017-08-15T11:25:50.928Z,15.03
2017-08-15T11:28:19.168Z,15.17
2017-08-15T11:30:46.968Z,20.13
2017-08-15T11:33:15.881Z,14.77
2017-08-15T11:35:43.413Z,15.60
2017-08-15T11:38:10.962Z,19.07
2017-08-15T11:40:38.531Z,15.50
2017-08-15T11:43:06.098Z,19.33
2017-08-15T11:45:34.347Z,24.70
2017-08-15T11:48:01.806Z,21.03
2017-08-15T11:50:29.294Z,20.80
2017-08-15T11:52:57.663Z,27.63
2017-08-15T11:55:25.914Z,19.83
2017-08-15T11:57:53.390Z,18.83
2017-08-15T12:00:21.678Z,17.63
2017-08-15T12:02:49.946Z,20.33
2017-08-15T12:05:18.220Z,18.30
2017-08-15T12:07:46.473Z,27.50
2017-08-15T12:10:14.047Z,19.97
2017-08-15T12:12:41.615Z,20.10
2017-08-15T12:15:09.879Z,19.83
2017-08-15T12:17:37.443Z,15.50
2017-08-15T12:20:04.995Z,15.70
2017-08-15T12:22:32.464Z,13.70
2017-08-15T12:25:00.738Z,16.60
2017-08-15T12:27:28.980Z,18.90
2017-08-15T12:29:56.468Z,13.00
2017-08-15T12:32:24.748Z,13.73
2017-08-15T12:34:52.994Z,14.37
2017-08-15T12:37:20.467Z,11.03
2017-08-15T12:39:48.019Z,11.60
2017-08-15T12:42:15.537Z,7.60
2017-08-15T12:44:43.051Z,9.17
2017-08-15T12:47:11.282Z,11.83
2017-08-15T12:49:38.771Z,10.47
2017-08-15T12:52:06.242Z,15.50
2017-08-15T12:54:34.479Z,10.77
2017-08-15T12:57:01.948Z,8.33
2017-08-15T12:59:29.534Z,10.90
2017-08-15T13:01:57.764Z,13.00
2017-08-15T13:04:25.240Z,16.43
2017-08-15T13:06:52.700Z,10.77
2017-08-15T13:09:20.280Z,9.70
2017-08-15T13:11:48.543Z,11.77
2017-08-15T13:14:16.003Z,10.07
2017-08-15T13:16:44.233Z,15.90
2017-08-15T13:19:11.699Z,13.73
2017-08-15T13:21:39.179Z,9.30
2017-08-15T13:24:06.655Z,15.27
2017-08-15T13:26:34.920Z,9.57
2017-08-15T13:29:02.388Z,10.47
2017-08-15T13:31:30.635Z,13.20
2017-08-15T13:33:58.096Z,9.27
2017-08-15T13:36:25.583Z,9.47
2017-08-15T13:38:53.823Z,10.60
2017-08-15T13:41:21.293Z,11.57
2017-08-15T13:43:48.844Z,10.00
2017-08-15T13:46:16.331Z,12.47
2017-08-15T13:48:44.551Z,8.53
2017-08-15T13:51:12.060Z,13.83
2017-08-15T13:53:39.534Z,11.67
2017-08-15T13:56:07.067Z,8.30
2017-08-15T13:58:35.319Z,11.47
2017-08-15T14:01:02.790Z,9.23
2017-08-15T14:03:30.253Z,11.33
2017-08-15T14:05:58.724Z,15.10
2017-08-15T14:08:26.184Z,11.27
2017-08-15T14:10:53.653Z,15.23
2017-08-15T14:13:21.907Z,19.30
2017-08-15T14:15:49.378Z,18.40
2017-08-15T14:18:17.624Z,13.67
2017-08-15T14:20:45.113Z,14.60
2017-08-15T14:23:12.596Z,16.57
2017-08-15T14:25:40.064Z,14.30
2017-08-15T14:28:07.543Z,19.87
2017-08-15T14:30:35.005Z,13.67
2017-08-15T14:33:02.510Z,14.97
2017-08-15T14:35:32.002Z,12.47
2017-08-15T14:38:01.296Z,14.90
2017-08-15T14:40:28.760Z,12.03
2017-08-15T14:42:57.011Z,13.33
2017-08-15T14:45:24.473Z,13.00
2017-08-15T14:47:51.939Z,12.87
2017-08-15T14:50:19.420Z,14.40
2017-08-15T14:52:47.689Z,19.17
2017-08-15T14:55:16.928Z,12.60
2017-08-15T14:57:44.412Z,14.10
2017-08-15T15:00:11.884Z,9.20
2017-08-15T15:02:39.356Z,10.50
2017-08-15T15:05:07.619Z,13.73
2017-08-15T15:07:35.086Z,10.70
2017-08-15T15:10:04.218Z,9.13
2017-08-15T15:12:31.697Z,9.67
2017-08-15T15:14:59.784Z,11.70
2017-08-15T15:17:27.251Z,11.57
2017-08-15T15:19:54.729Z,12.30
2017-08-15T15:22:22.962Z,10.07
2017-08-15T15:24:50.550Z,10.03
2017-08-15T15:27:18.023Z,10.00
2017-08-15T15:29:45.499Z,12.47
2017-08-15T15:32:12.975Z,11.47
2017-08-15T15:34:40.484Z,11.53
2017-08-15T15:37:09.427Z,14.03
2017-08-15T15:39:36.983Z,14.00
2017-08-15T15:42:04.480Z,14.13
2017-08-15T15:44:32.712Z,15.80
2017-08-15T15:47:00.220Z,14.00
2017-08-15T15:49:28.456Z,21.63
2017-08-15T15:51:55.925Z,13.90
2017-08-15T15:54:23.408Z,19.23
2017-08-15T15:56:50.973Z,14.90
2017-08-15T15:59:19.716Z,16.33
2017-08-15T16:01:47.723Z,17.63
2017-08-15T16:04:16.051Z,12.67
2017-08-15T16:06:46.033Z,14.60
2017-08-15T16:09:14.903Z,8.00
2017-08-15T16:11:48.060Z,11.80
2017-08-15T16:14:18.381Z,9.77
2017-08-15T16:16:47.642Z,7.33
2017-08-15T16:19:18.496Z,8.87
2017-08-15T16:21:46.334Z,6.40
2017-08-15T16:24:14.666Z,6.23
2017-08-15T16:26:45.845Z,9.73
2017-08-15T16:29:15.854Z,4.67
2017-08-15T16:31:45.509Z,6.53
2017-08-15T16:34:14.572Z,7.53
2017-08-15T16:36:44.373Z,6.43
2017-08-15T16:39:11.998Z,11.67
2017-08-15T16:41:42.468Z,10.23
2017-08-15T16:44:09.953Z,5.83
2017-08-15T16:46:37.418Z,8.53
2017-08-15T16:49:04.917Z,5.80
2017-08-15T16:51:32.395Z,7.23
2017-08-15T16:54:00.702Z,4.63
2017-08-15T16:56:28.174Z,7.80
2017-08-15T16:58:55.645Z,6.93
2017-08-15T17:01:23.119Z,7.97
2017-08-15T17:03:51.370Z,7.60
2017-08-15T17:06:18.888Z,6.93
2017-08-15T17:08:46.352Z,10.77
2017-08-15T17:11:13.832Z,8.97
2017-08-15T17:13:41.324Z,11.23
2017-08-15T17:16:10.351Z,11.50
2017-08-15T17:18:37.904Z,10.23
2017-08-15T17:21:05.442Z,7.47
2017-08-15T17:23:33.367Z,13.63
2017-08-15T17:26:00.860Z,17.20
2017-08-15T17:28:28.416Z,8.13
2017-08-15T17:30:55.880Z,13.70
2017-08-15T17:33:24.159Z,9.00
2017-08-15T17:35:51.708Z,9.20
2017-08-15T17:40:53.184Z,10.13
2017-08-15T17:43:21.417Z,16.10
2017-08-15T17:45:48.862Z,8.70
2017-08-15T17:48:16.341Z,12.10
2017-08-15T17:50:43.800Z,10.43
2017-08-15T17:53:11.276Z,12.20
2017-08-15T17:55:38.752Z,9.83
2017-08-15T17:58:07.011Z,10.27
2017-08-15T18:00:35.291Z,10.57
2017-08-15T18:03:03.531Z,17.07
2017-08-15T18:05:31.020Z,9.47
2017-08-15T18:07:59.286Z,9.63
2017-08-15T18:10:27.661Z,6.13
2017-08-15T18:12:55.430Z,8.13
2017-08-15T18:15:22.959Z,10.73
2017-08-15T18:17:50.428Z,13.70
2017-08-15T18:20:17.900Z,10.23
2017-08-15T18:22:45.368Z,10.87
2017-08-15T18:25:14.133Z,10.13
2017-08-15T18:27:41.612Z,15.53
2017-08-15T18:30:09.888Z,9.10
2017-08-15T18:32:38.127Z,12.87
2017-08-15T18:35:05.613Z,9.40
2017-08-15T18:37:33.072Z,9.70
2017-08-15T18:40:01.313Z,11.10
2017-08-15T18:42:29.099Z,16.30
2017-08-15T18:44:56.580Z,8.17
2017-08-15T18:47:24.834Z,15.00
2017-08-15T18:49:52.301Z,13.23
2017-08-15T18:52:20.573Z,7.77
2017-08-15T18:54:48.131Z,9.57
2017-08-15T18:57:16.368Z,15.70
2017-08-15T18:59:43.864Z,8.13
2017-08-15T19:02:11.547Z,9.03
2017-08-15T19:04:39.012Z,9.40
2017-08-15T19:07:07.395Z,6.20
2017-08-15T19:09:35.176Z,10.20
2017-08-15T19:12:02.683Z,11.93
2017-08-15T19:14:30.967Z,7.73
2017-08-15T19:16:58.450Z,7.47
2017-08-15T19:19:26.152Z,5.63
2017-08-15T19:21:53.631Z,6.70
2017-08-15T19:24:21.132Z,11.50
2017-08-15T19:26:48.647Z,8.27
2017-08-15T19:29:16.125Z,12.37
2017-08-15T19:31:43.664Z,10.43
2017-08-15T19:34:11.939Z,9.83
2017-08-15T19:36:40.168Z,7.80
2017-08-15T19:39:07.651Z,14.50
2017-08-15T19:41:35.441Z,8.13
2017-08-15T19:44:03.735Z,9.10
2017-08-15T19:46:32.033Z,8.33
2017-08-15T19:48:59.557Z,12.03
2017-08-15T19:51:27.775Z,13.40
2017-08-15T19:53:55.387Z,17.10
2017-08-15T19:56:23.655Z,12.43
2017-08-15T19:58:51.932Z,14.53
2017-08-15T20:01:20.188Z,13.03
2017-08-15T20:03:48.275Z,18.83
2017-08-15T20:06:16.551Z,15.47
2017-08-15T20:08:44.835Z,19.23
2017-08-15T20:11:13.097Z,20.20
2017-08-15T20:13:40.560Z,15.07
2017-08-15T20:16:08.041Z,26.50
2017-08-15T20:18:35.569Z,17.63
2017-08-15T20:21:03.037Z,31.33
2017-08-15T20:23:31.310Z,23.27
2017-08-15T20:25:59.591Z,26.20
2017-08-15T20:28:27.820Z,31.73
2017-08-15T20:30:55.308Z,22.73
2017-08-15T20:33:22.881Z,30.03
2017-08-15T20:35:51.147Z,26.07
2017-08-15T20:38:19.332Z,37.37
2017-08-15T20:40:47.601Z,28.20
2017-08-15T20:43:15.884Z,30.93
2017-08-15T20:45:44.119Z,41.70
2017-08-15T20:48:11.591Z,31.00
2017-08-15T20:50:39.831Z,49.37
2017-08-15T20:53:07.321Z,32.87
2017-08-15T20:55:35.009Z,46.57
2017-08-15T20:58:03.703Z,40.30
2017-08-15T21:00:31.248Z,39.83
2017-08-15T21:02:59.519Z,48.73
2017-08-15T21:05:27.186Z,43.77
2017-08-15T21:07:55.463Z,41.90
2017-08-15T21:10:23.689Z,40.37
2017-08-15T21:12:51.189Z,53.07
2017-08-15T21:15:19.459Z,41.47
2017-08-15T21:17:47.015Z,40.40
2017-08-15T21:20:14.585Z,43.60
2017-08-15T21:22:42.295Z,42.10
2017-08-15T21:25:09.759Z,44.90
2017-08-15T21:27:37.220Z,45.80
2017-08-15T21:30:04.704Z,50.80
2017-08-15T21:32:32.273Z,43.60
2017-08-15T21:34:59.741Z,50.87
2017-08-15T21:37:27.986Z,53.27
2017-08-15T21:39:55.450Z,54.17
2017-08-15T21:42:23.023Z,50.10
2017-08-15T21:44:50.576Z,45.23
2017-08-15T21:47:18.131Z,47.23
2017-08-15T21:49:45.596Z,49.13
2017-08-15T21:52:13.840Z,46.57
2017-08-15T21:54:41.302Z,49.50
2017-08-15T21:57:08.772Z,63.10
2017-08-15T21:59:36.256Z,56.70
2017-08-15T22:02:24.257Z,50.07
2017-08-15T22:04:51.726Z,74.90
2017-08-15T22:07:19.299Z,58.90
2017-08-15T22:09:48.178Z,53.73
2017-08-15T22:12:15.653Z,54.33
2017-08-15T22:14:43.920Z,54.17
2017-08-15T22:17:12.157Z,62.47
2017-08-15T22:19:39.644Z,68.67
2017-08-15T22:22:07.108Z,67.13
2017-08-15T22:24:35.343Z,58.40
2017-08-15T22:27:02.820Z,57.87
2017-08-15T22:29:30.294Z,61.97
2017-08-15T22:31:58.525Z,64.80
2017-08-15T22:34:26.001Z,64.53
2017-08-15T22:36:53.495Z,65.90
2017-08-15T22:39:21.761Z,70.67
2017-08-15T22:41:50.231Z,84.70
2017-08-15T22:44:17.786Z,80.53
2017-08-15T22:46:45.346Z,86.50
2017-08-15T22:49:12.824Z,71.23
2017-08-15T22:51:41.059Z,64.27
2017-08-15T22:54:08.521Z,79.13
2017-08-15T22:56:35.991Z,76.70
2017-08-15T22:59:03.487Z,62.87
2017-08-15T23:01:30.941Z,84.13
2017-08-15T23:03:58.427Z,112.93
2017-08-15T23:06:25.937Z,76.20
2017-08-15T23:08:54.171Z,93.13
2017-08-15T23:11:21.761Z,69.17
2017-08-15T23:13:49.231Z,93.17
2017-08-15T23:16:18.073Z,70.27
2017-08-15T23:18:45.563Z,81.57
2017-08-15T23:21:13.243Z,81.90
2017-08-15T23:23:41.508Z,94.43
2017-08-15T23:26:09.751Z,73.67
2017-08-15T23:28:37.239Z,83.90
2017-08-15T23:31:05.476Z,69.43
2017-08-15T23:33:32.946Z,94.00
2017-08-15T23:36:00.415Z,94.87
2017-08-15T23:38:27.890Z,81.30
2017-08-15T23:40:55.402Z,90.00
2017-08-15T23:43:22.891Z,105.40
2017-08-15T23:45:50.354Z,89.10
2017-08-15T23:48:18.622Z,102.57
2017-08-15T23:50:46.099Z,112.30
2017-08-15T23:53:14.752Z,98.00
2017-08-15T23:55:42.235Z,92.10
2017-08-15T23:58:10.479Z,85.90
